createdAt,value
2019-02-15T00:01:43.079Z,1.30
2019-02-15T00:06:46.562Z,1.10
2019-02-15T00:11:50.050Z,0.90
2019-02-15T00:16:53.524Z,1.17
2019-02-15T00:21:57.015Z,1.10
2019-02-15T00:27:00.513Z,1.10
2019-02-15T00:32:03.998Z,0.93
2019-02-15T00:37:07.488Z,1.30
2019-02-15T00:42:10.966Z,1.20
2019-02-15T00:47:21.523Z,1.03
2019-02-15T00:52:26.651Z,1.22
2019-02-15T00:57:40.799Z,1.30
2019-02-15T01:02:48.893Z,1.05
2019-02-15T01:08:06.035Z,1.30
2019-02-15T01:13:11.145Z,1.10
2019-02-15T01:18:14.623Z,1.07
2019-02-15T01:23:18.090Z,1.17
2019-02-15T01:28:23.203Z,1.33
2019-02-15T01:33:44.557Z,1.05
2019-02-15T01:38:58.311Z,1.23
2019-02-15T01:44:03.424Z,1.20
2019-02-15T01:49:06.899Z,1.00
2019-02-15T01:54:10.363Z,1.30
2019-02-15T01:59:13.834Z,1.00
2019-02-15T02:04:17.376Z,1.05
2019-02-15T02:09:21.322Z,1.03
2019-02-15T02:14:24.794Z,1.20
2019-02-15T02:19:28.275Z,1.10
2019-02-15T02:24:31.746Z,1.10
2019-02-15T02:29:35.210Z,0.98
2019-02-15T02:34:38.678Z,1.20
2019-02-15T02:39:42.146Z,1.07
2019-02-15T02:44:45.624Z,1.20
2019-02-15T02:49:49.091Z,1.07
2019-02-15T02:54:52.569Z,0.90
2019-02-15T02:59:56.039Z,1.10
2019-02-15T03:04:59.519Z,1.30
2019-02-15T03:10:03.349Z,1.20
2019-02-15T03:15:07.870Z,1.07
2019-02-15T03:20:11.332Z,0.70
2019-02-15T03:25:14.795Z,0.90
2019-02-15T03:30:18.267Z,1.07
2019-02-15T03:35:21.730Z,1.00
2019-02-15T03:40:29.833Z,1.35
2019-02-15T03:45:33.263Z,1.25
2019-02-15T03:50:36.750Z,1.07
2019-02-15T03:55:40.206Z,1.40
2019-02-15T04:00:43.676Z,1.23
2019-02-15T04:05:47.150Z,0.85
2019-02-15T04:10:50.627Z,0.87
2019-02-15T04:15:54.090Z,1.00
2019-02-15T04:20:57.565Z,1.17
2019-02-15T04:26:01.040Z,0.97
2019-02-15T04:31:04.517Z,0.80
2019-02-15T04:36:07.993Z,0.95
2019-02-15T04:41:11.454Z,1.40
2019-02-15T04:46:14.922Z,1.03
2019-02-15T04:51:18.447Z,0.90
2019-02-15T04:56:21.873Z,1.02
2019-02-15T05:01:25.338Z,1.33
2019-02-15T05:06:28.810Z,1.10
2019-02-15T05:11:32.278Z,0.97
2019-02-15T05:16:35.753Z,1.17
2019-02-15T05:21:39.222Z,1.17
2019-02-15T05:26:42.697Z,1.30
2019-02-15T05:31:46.173Z,1.02
2019-02-15T05:36:49.646Z,1.10
2019-02-15T05:41:53.155Z,1.07
2019-02-15T05:46:56.590Z,0.90
2019-02-15T05:52:00.065Z,1.02
2019-02-15T05:57:03.542Z,0.90
2019-02-15T06:02:07.012Z,1.12
2019-02-15T06:07:10.478Z,0.80
2019-02-15T06:12:13.950Z,0.70
2019-02-15T06:17:17.425Z,0.90
2019-02-15T06:22:20.898Z,0.90
2019-02-15T06:27:24.371Z,0.87
2019-02-15T06:32:27.846Z,1.03
2019-02-15T06:37:31.317Z,0.70
2019-02-15T06:42:34.783Z,0.90
2019-02-15T06:47:38.258Z,0.83
2019-02-15T06:52:41.721Z,1.00
2019-02-15T06:57:45.188Z,0.78
2019-02-15T07:02:56.127Z,0.70
2019-02-15T07:07:59.601Z,0.87
2019-02-15T07:13:03.075Z,0.78
2019-02-15T07:18:06.552Z,0.93
2019-02-15T07:23:10.027Z,1.17
2019-02-15T07:28:13.497Z,0.80
2019-02-15T07:33:16.976Z,0.82
2019-02-15T07:38:20.440Z,0.80
2019-02-15T07:43:23.913Z,0.90
2019-02-15T07:48:27.388Z,2.93
2019-02-15T07:53:30.863Z,2.97
2019-02-15T07:58:34.332Z,3.03
2019-02-15T08:03:37.804Z,2.98
2019-02-15T08:08:41.266Z,3.10
2019-02-15T08:13:44.736Z,2.83
2019-02-15T08:18:48.216Z,2.97
2019-02-15T08:23:51.690Z,2.70
2019-02-15T08:28:55.160Z,2.67
2019-02-15T08:33:58.641Z,2.77
2019-02-15T08:39:02.116Z,3.40
2019-02-15T08:44:05.593Z,2.50
2019-02-15T08:49:09.067Z,2.80
2019-02-15T08:54:12.538Z,2.10
2019-02-15T08:59:16.011Z,1.93
2019-02-15T09:04:19.482Z,1.97
2019-02-15T09:09:22.952Z,2.65
2019-02-15T09:14:26.419Z,1.70
2019-02-15T09:19:29.892Z,1.67
2019-02-15T09:24:33.358Z,1.97
2019-02-15T09:29:36.830Z,1.90
2019-02-15T09:34:40.310Z,1.87
2019-02-15T09:39:43.783Z,2.20
2019-02-15T09:44:47.254Z,2.17
2019-02-15T09:49:50.727Z,2.07
2019-02-15T09:54:54.205Z,2.03
2019-02-15T09:59:57.666Z,2.23
2019-02-15T10:05:01.144Z,1.73
2019-02-15T10:10:09.013Z,1.70
2019-02-15T10:15:12.710Z,1.70
2019-02-15T10:20:16.186Z,2.10
2019-02-15T10:25:19.656Z,1.60
2019-02-15T10:30:23.130Z,1.77
2019-02-15T10:35:26.607Z,1.33
2019-02-15T10:40:30.080Z,1.87
2019-02-15T10:45:33.551Z,2.50
2019-02-15T10:50:37.022Z,2.17
2019-02-15T10:55:40.493Z,2.07
2019-02-15T11:00:43.970Z,2.10
2019-02-15T11:05:47.438Z,2.07
2019-02-15T11:10:50.909Z,1.90
2019-02-15T11:15:54.378Z,2.30
2019-02-15T11:20:57.851Z,2.22
2019-02-15T11:26:01.335Z,1.90
2019-02-15T11:31:04.806Z,1.83
2019-02-15T11:36:08.285Z,2.20
2019-02-15T11:41:11.763Z,1.90
2019-02-15T11:46:15.223Z,1.97
2019-02-15T11:51:18.703Z,1.80
2019-02-15T11:56:22.173Z,1.95
2019-02-15T12:01:25.642Z,1.53
2019-02-15T12:06:29.120Z,1.57
2019-02-15T12:11:32.767Z,1.43
2019-02-15T12:16:38.130Z,2.07
2019-02-15T12:21:41.434Z,1.83
2019-02-15T12:26:44.908Z,1.87
2019-02-15T12:31:48.382Z,1.57
2019-02-15T12:36:51.851Z,1.80
2019-02-15T12:41:55.325Z,1.50
2019-02-15T12:46:58.786Z,1.53
2019-02-15T12:52:02.259Z,1.70
2019-02-15T12:57:05.727Z,1.60
2019-02-15T13:02:09.219Z,1.70
2019-02-15T13:07:12.662Z,1.60
2019-02-15T13:12:16.134Z,1.60
2019-02-15T13:17:24.632Z,1.45
2019-02-15T13:22:24.803Z,1.40
2019-02-15T13:27:28.275Z,1.20
2019-02-15T13:32:31.744Z,1.40
2019-02-15T13:37:44.583Z,1.70
2019-02-15T13:42:48.058Z,1.40
2019-02-15T13:47:51.538Z,1.60
2019-02-15T13:52:55.014Z,1.45
2019-02-15T13:57:58.491Z,1.40
2019-02-15T14:03:01.970Z,0.90
2019-02-15T14:08:05.444Z,1.33
2019-02-15T14:13:08.924Z,1.07
2019-02-15T14:18:12.407Z,1.00
2019-02-15T14:23:15.903Z,1.10
2019-02-15T14:28:19.403Z,1.00
2019-02-15T14:33:22.908Z,1.00
2019-02-15T14:38:26.398Z,1.20
2019-02-15T14:43:29.885Z,0.97
2019-02-15T14:48:33.374Z,1.20
2019-02-15T14:53:36.866Z,1.27
2019-02-15T14:58:40.381Z,1.00
2019-02-15T15:03:43.866Z,1.10
2019-02-15T15:08:47.349Z,1.12
2019-02-15T15:13:50.830Z,0.90
2019-02-15T15:18:54.308Z,0.80
2019-02-15T15:23:57.786Z,1.17
2019-02-15T15:29:03.296Z,0.95
2019-02-15T15:34:06.772Z,1.20
2019-02-15T15:39:13.146Z,0.87
2019-02-15T15:44:16.650Z,1.10
2019-02-15T15:49:20.137Z,1.10
2019-02-15T15:54:23.632Z,1.20
2019-02-15T15:59:27.131Z,1.12
2019-02-15T16:04:30.627Z,0.97
2019-02-15T16:09:34.124Z,1.98
2019-02-15T16:14:37.617Z,1.00
2019-02-15T16:19:49.417Z,0.90
2019-02-15T16:24:46.318Z,1.30
2019-02-15T16:29:49.811Z,1.35
2019-02-15T16:34:53.286Z,1.10
2019-02-15T16:39:56.764Z,1.27
2019-02-15T16:45:00.399Z,0.90
2019-02-15T16:50:03.897Z,0.93
2019-02-15T16:55:12.871Z,0.63
2019-02-15T17:00:14.958Z,1.10
2019-02-15T17:05:18.431Z,1.40
2019-02-15T17:10:21.983Z,1.60
2019-02-15T17:15:25.465Z,1.40
2019-02-15T17:20:28.944Z,1.77
2019-02-15T17:25:32.418Z,1.90
2019-02-15T17:30:35.898Z,1.98
2019-02-15T17:35:39.370Z,1.97
2019-02-15T17:40:42.851Z,2.40
2019-02-15T17:45:46.322Z,2.60
2019-02-15T17:50:49.803Z,2.25
2019-02-15T17:55:53.287Z,2.20
2019-02-15T18:00:57.140Z,2.40
2019-02-15T18:06:00.616Z,2.33
2019-02-15T18:11:04.085Z,1.98
2019-02-15T18:16:07.570Z,2.33
2019-02-15T18:21:11.048Z,2.00
2019-02-15T18:26:14.531Z,2.10
2019-02-15T18:31:18.007Z,2.23
2019-02-15T18:36:21.482Z,2.20
2019-02-15T18:41:24.958Z,2.27
2019-02-15T18:46:28.437Z,2.22
2019-02-15T18:51:31.920Z,1.98
2019-02-15T18:56:35.393Z,1.90
2019-02-15T19:01:38.900Z,2.20
2019-02-15T19:06:42.378Z,2.43
2019-02-15T19:11:45.854Z,2.33
2019-02-15T19:16:49.331Z,2.15
2019-02-15T19:21:52.807Z,2.37
2019-02-15T19:26:56.283Z,2.47
2019-02-15T19:31:59.764Z,2.00
2019-02-15T19:37:03.238Z,2.75
2019-02-15T19:42:09.971Z,2.55
2019-02-15T19:47:13.473Z,2.17
2019-02-15T19:52:16.963Z,2.40
2019-02-15T19:57:20.456Z,1.93
2019-02-15T20:02:23.948Z,2.13
2019-02-15T20:07:27.443Z,2.33
2019-02-15T20:12:30.934Z,2.40
2019-02-15T20:17:34.427Z,2.10
2019-02-15T20:22:37.914Z,2.53
2019-02-15T20:27:41.408Z,2.17
2019-02-15T20:32:44.900Z,1.83
2019-02-15T20:37:48.406Z,2.13
2019-02-15T20:42:51.907Z,2.40
2019-02-15T20:47:55.402Z,2.67
2019-02-15T20:52:58.898Z,2.10
2019-02-15T20:58:02.391Z,2.43
2019-02-15T21:03:05.882Z,2.42
2019-02-15T21:08:09.376Z,2.70
2019-02-15T21:13:20.204Z,2.20
2019-02-15T21:18:18.084Z,2.40
2019-02-15T21:23:21.580Z,2.37
2019-02-15T21:28:25.068Z,2.47
2019-02-15T21:33:28.559Z,2.60
2019-02-15T21:38:32.056Z,2.22
2019-02-15T21:43:35.556Z,2.27
2019-02-15T21:48:39.050Z,2.40
2019-02-15T21:53:42.545Z,2.27
2019-02-15T21:58:46.039Z,1.75
2019-02-15T22:03:49.534Z,1.90
2019-02-15T22:08:53.018Z,2.43
2019-02-15T22:13:56.507Z,1.90
2019-02-15T22:19:00.002Z,2.23
2019-02-15T22:24:03.494Z,1.93
2019-02-15T22:29:06.986Z,2.30
2019-02-15T22:34:10.484Z,2.07
2019-02-15T22:39:13.979Z,2.10
2019-02-15T22:44:17.466Z,2.17
2019-02-15T22:49:21.021Z,1.90
2019-02-15T22:54:24.539Z,2.08
2019-02-15T22:59:28.029Z,2.27
2019-02-15T23:04:31.523Z,1.80
2019-02-15T23:09:35.093Z,1.92
2019-02-15T23:14:38.592Z,1.90
2019-02-15T23:19:42.082Z,1.80
2019-02-15T23:24:45.570Z,1.77
2019-02-15T23:29:49.058Z,1.72
2019-02-15T23:34:52.553Z,2.10
2019-02-15T23:39:56.051Z,1.60
2019-02-15T23:44:59.541Z,1.92
2019-02-15T23:50:03.293Z,1.97
2019-02-15T23:55:06.951Z,1.85
